Time;durP1;ratioP1;P1;durP2;ratioP2;P2;SDS_P1;SDS_P2;PMS_P1;PMS_P2;Temp;Humidity;BMP_temperature;BMP_pressure;BME280_temperature;BME280_humidity;BME280_pressure;Samples;Min_cycle;Max_cycle;Signal;HPM_P1;HPM_P2
2023/09/02 00:04:48;;;;;;;8.63;3.70;;;;;16.60;101064.00;;;;10420236;27;20204;-79
2023/09/02 00:09:49;;;;;;;8.30;4.28;;;;;16.50;101066.00;;;;10451403;27;20710;-79
2023/09/02 00:14:50;;;;;;;8.90;3.60;;;;;16.40;101066.00;;;;10418361;27;20698;-79
2023/09/02 00:19:52;;;;;;;9.88;4.18;;;;;16.30;101069.00;;;;10416781;27;20536;-81
2023/09/02 00:24:53;;;;;;;6.68;3.67;;;;;16.20;101065.00;;;;10434562;27;21617;-79
2023/09/02 00:29:55;;;;;;;4.65;3.80;;;;;16.10;101069.00;;;;10419169;27;20224;-79
2023/09/02 00:34:56;;;;;;;6.47;3.50;;;;;16.00;101065.00;;;;10436535;27;20200;-79
2023/09/02 00:39:58;;;;;;;5.97;3.90;;;;;16.00;101072.00;;;;10403648;27;20232;-81
2023/09/02 00:44:59;;;;;;;5.88;4.03;;;;;15.90;101077.00;;;;10418770;27;21186;-79
2023/09/02 00:50:01;;;;;;;5.32;3.80;;;;;15.80;101079.00;;;;10435696;27;20306;-79
2023/09/02 00:55:03;;;;;;;6.40;4.13;;;;;15.80;101090.00;;;;10388420;27;20408;-79
2023/09/02 01:00:05;;;;;;;6.10;4.45;;;;;15.80;101082.00;;;;10419546;27;20989;-81
2023/09/02 01:05:07;;;;;;;7.45;4.85;;;;;15.80;101070.00;;;;10421202;27;20208;-81
2023/09/02 01:10:08;;;;;;;7.75;5.07;;;;;15.80;101069.00;;;;10417526;27;20235;-79
2023/09/02 01:15:10;;;;;;;9.43;4.72;;;;;15.70;101073.00;;;;10421100;27;21390;-79
2023/09/02 01:20:16;;;;;;;7.13;4.30;;;;;15.70;101074.00;;;;10417030;27;20208;-79
2023/09/02 01:25:30;;;;;;;5.57;4.45;;;;;15.60;101083.00;;;;10419459;27;20224;-81
2023/09/02 01:30:33;;;;;;;9.40;4.07;;;;;15.50;101095.00;;;;10420583;27;21961;-81
2023/09/02 01:35:37;;;;;;;4.95;4.50;;;;;15.50;101090.00;;;;10460309;27;20193;-79
2023/09/02 01:40:41;;;;;;;14.82;4.32;;;;;15.40;101103.00;;;;10423310;27;20236;-79
2023/09/02 01:45:43;;;;;;;7.15;3.67;;;;;15.40;101103.00;;;;10441474;27;21742;-79
2023/09/02 01:50:45;;;;;;;6.50;4.57;;;;;15.30;101099.00;;;;10439353;27;20224;-80
2023/09/02 01:55:47;;;;;;;8.80;5.50;;;;;15.30;101096.00;;;;10424889;27;20892;-79
2023/09/02 02:00:52;;;;;;;7.80;6.13;;;;;15.40;101108.00;;;;10409316;27;20233;-79
2023/09/02 02:05:53;;;;;;;10.15;7.65;;;;;15.40;101107.00;;;;10441893;27;20197;-80
2023/09/02 02:10:59;;;;;;;11.52;6.75;;;;;15.40;101113.00;;;;10407202;27;20709;-80
2023/09/02 02:16:00;;;;;;;14.15;6.72;;;;;15.40;101112.00;;;;10458850;27;20808;-80
2023/09/02 02:21:03;;;;;;;8.43;5.60;;;;;15.30;101116.00;;;;10423163;27;20243;-80
2023/09/02 02:26:07;;;;;;;10.82;5.25;;;;;15.30;101135.00;;;;10424230;27;20216;-80
2023/09/02 02:31:08;;;;;;;5.30;4.80;;;;;15.20;101134.00;;;;10406361;27;20222;-80
2023/09/02 02:36:10;;;;;;;9.48;4.93;;;;;15.20;101130.00;;;;10422076;27;20211;-80
2023/09/02 02:41:11;;;;;;;10.57;5.43;;;;;15.20;101123.00;;;;10420509;27;20200;-80
2023/09/02 02:46:12;;;;;;;7.25;5.03;;;;;15.20;101122.00;;;;10422992;27;20911;-80
2023/09/02 02:51:14;;;;;;;8.65;5.30;;;;;15.10;101123.00;;;;10423541;27;20220;-80
2023/09/02 02:56:16;;;;;;;8.07;5.85;;;;;15.00;101135.00;;;;10405315;28;20678;-80
2023/09/02 03:01:18;;;;;;;8.98;5.50;;;;;15.00;101142.00;;;;10419237;27;20207;-80
2023/09/02 03:06:20;;;;;;;12.20;5.97;;;;;15.00;101142.00;;;;10422292;27;20252;-80
2023/09/02 03:11:21;;;;;;;9.40;5.85;;;;;15.00;101145.00;;;;10420161;28;20225;-80
2023/09/02 03:16:23;;;;;;;8.07;5.15;;;;;15.00;101145.00;;;;10437989;27;20479;-80
2023/09/02 03:21:24;;;;;;;10.40;4.93;;;;;15.10;101141.00;;;;10410175;27;20208;-80
2023/09/02 03:26:27;;;;;;;11.55;6.00;;;;;15.20;101144.00;;;;10423202;27;20312;-81
2023/09/02 03:31:30;;;;;;;12.75;6.53;;;;;15.30;101141.00;;;;10406966;27;20362;-81
2023/09/02 03:36:32;;;;;;;9.98;6.53;;;;;15.40;101125.00;;;;10421890;27;20987;-80
2023/09/02 03:41:37;;;;;;;6.78;6.07;;;;;15.40;101124.00;;;;10438204;27;21862;-80
2023/09/02 03:46:38;;;;;;;13.05;5.75;;;;;15.40;101127.00;;;;10421363;27;20240;-80
2023/09/02 03:51:39;;;;;;;6.43;5.55;;;;;15.40;101131.00;;;;10454214;27;20220;-80
2023/09/02 03:56:42;;;;;;;11.63;5.32;;;;;15.30;101126.00;;;;10388880;27;20341;-80
2023/09/02 04:01:43;;;;;;;8.10;5.38;;;;;15.20;101128.00;;;;10418646;27;20211;-80
2023/09/02 04:06:45;;;;;;;11.93;5.32;;;;;15.10;101137.00;;;;10417118;27;20473;-80
2023/09/02 04:11:46;;;;;;;7.47;5.75;;;;;15.10;101122.00;;;;10387019;27;20221;-81
2023/09/02 04:16:48;;;;;;;13.82;5.43;;;;;15.00;101123.00;;;;10401293;27;20200;-81
2023/09/02 04:21:51;;;;;;;7.00;4.85;;;;;14.90;101118.00;;;;10436671;27;20930;-80
2023/09/02 04:26:53;;;;;;;9.25;5.45;;;;;14.90;101117.00;;;;10416527;28;21017;-80
2023/09/02 04:31:54;;;;;;;7.25;5.70;;;;;14.90;101116.00;;;;10434666;27;20301;-81
2023/09/02 04:37:00;;;;;;;12.30;6.03;;;;;14.90;101128.00;;;;10418877;27;20694;-81
2023/09/02 04:42:02;;;;;;;7.63;5.60;;;;;15.00;101138.00;;;;10418377;27;20234;-81
2023/09/02 04:47:04;;;;;;;7.55;6.00;;;;;15.10;101134.00;;;;10433410;27;20200;-81
2023/09/02 04:52:07;;;;;;;11.23;7.50;;;;;15.20;101139.00;;;;10432405;27;21439;-80
2023/09/02 04:57:08;;;;;;;13.05;7.53;;;;;15.30;101154.00;;;;10418708;27;20204;-81
2023/09/02 05:02:10;;;;;;;13.85;7.47;;;;;15.40;101157.00;;;;10400469;28;20294;-81
2023/09/02 05:07:11;;;;;;;13.50;6.80;;;;;15.50;101153.00;;;;10440809;27;20228;-80
2023/09/02 05:12:13;;;;;;;9.18;6.13;;;;;15.50;101157.00;;;;10406406;27;20249;-81
2023/09/02 05:17:14;;;;;;;15.52;5.72;;;;;15.50;101156.00;;;;10439803;27;20508;-81
2023/09/02 05:22:16;;;;;;;14.85;6.00;;;;;15.50;101164.00;;;;10435216;27;20211;-81
2023/09/02 05:27:17;;;;;;;8.52;5.68;;;;;15.60;101176.00;;;;10404363;27;20834;-81
2023/09/02 05:32:19;;;;;;;9.57;5.90;;;;;15.60;101175.00;;;;10419722;27;20832;-80
2023/09/02 05:37:20;;;;;;;6.53;5.53;;;;;15.70;101175.00;;;;10417929;28;20221;-80
2023/09/02 05:42:21;;;;;;;8.90;6.30;;;;;15.80;101194.00;;;;10415818;27;21509;-80
2023/09/02 05:47:23;;;;;;;8.23;5.72;;;;;15.90;101207.00;;;;10413624;27;20211;-80
2023/09/02 05:52:24;;;;;;;11.43;6.20;;;;;16.00;101213.00;;;;10418498;27;21678;-81
2023/09/02 05:57:25;;;;;;;12.90;6.30;;;;;16.20;101232.00;;;;10433078;27;20196;-81
2023/09/02 06:02:27;;;;;;;10.55;6.57;;;;;16.50;101233.00;;;;10431108;27;20365;-80
2023/09/02 06:07:29;;;;;;;12.80;6.82;;;;;16.70;101245.00;;;;10419823;28;20209;-81
2023/09/02 06:12:30;;;;;;;10.63;6.68;;;;;16.90;101254.00;;;;10413483;27;20270;-81
2023/09/02 06:17:31;;;;;;;12.07;7.80;;;;;17.10;101256.00;;;;10431297;27;20207;-81
2023/09/02 06:22:33;;;;;;;11.43;6.95;;;;;17.30;101263.00;;;;10415897;27;20216;-80
2023/09/02 06:27:35;;;;;;;11.38;7.03;;;;;17.60;101266.00;;;;10415440;27;21849;-81
2023/09/02 06:32:37;;;;;;;11.45;7.28;;;;;17.90;101261.00;;;;10414855;27;20236;-80
2023/09/02 06:37:38;;;;;;;10.23;6.82;;;;;18.10;101262.00;;;;10430039;27;20641;-81
2023/09/02 06:42:39;;;;;;;7.35;6.50;;;;;18.40;101263.00;;;;10416373;27;20304;-80
2023/09/02 06:47:41;;;;;;;11.77;6.70;;;;;18.80;101277.00;;;;10415284;27;20205;-80
2023/09/02 06:52:42;;;;;;;10.07;6.00;;;;;19.20;101287.00;;;;10431203;27;20213;-80
2023/09/02 06:57:44;;;;;;;9.55;5.47;;;;;19.70;101280.00;;;;10429280;27;21433;-80
2023/09/02 07:02:45;;;;;;;9.23;5.57;;;;;20.30;101285.00;;;;10415959;27;20208;-80
2023/09/02 07:07:47;;;;;;;8.50;4.97;;;;;20.60;101280.00;;;;10429019;27;20220;-80
2023/09/02 07:12:52;;;;;;;6.55;3.97;;;;;20.70;101309.00;;;;10430895;28;20311;-81
2023/09/02 07:17:53;;;;;;;4.80;3.85;;;;;20.90;101322.00;;;;10420994;27;20207;-81
2023/09/02 07:22:55;;;;;;;7.40;3.60;;;;;20.90;101332.00;;;;10429404;27;20193;-81
2023/09/02 07:27:56;;;;;;;10.88;3.58;;;;;21.20;101333.00;;;;10415199;27;20589;-80
2023/09/02 07:32:57;;;;;;;10.30;4.00;;;;;21.20;101341.00;;;;10428177;27;20216;-81
2023/09/02 07:37:59;;;;;;;5.32;3.30;;;;;21.30;101343.00;;;;10409904;27;20208;-81
2023/09/02 07:43:01;;;;;;;6.57;3.60;;;;;21.80;101350.00;;;;10414382;27;20767;-81
2023/09/02 07:48:03;;;;;;;6.03;3.55;;;;;22.40;101362.00;;;;10429157;27;20197;-81
2023/09/02 07:53:05;;;;;;;8.13;4.47;;;;;23.10;101365.00;;;;10403010;27;20224;-81
2023/09/02 07:58:06;;;;;;;7.95;5.22;;;;;23.40;101365.00;;;;10413614;27;21183;-80
2023/09/02 08:03:07;;;;;;;7.15;4.22;;;;;23.30;101371.00;;;;10429163;27;20218;-81
2023/09/02 08:08:09;;;;;;;8.32;4.63;;;;;23.00;101374.00;;;;10447229;27;20226;-80
2023/09/02 08:13:10;;;;;;;7.38;4.00;;;;;22.80;101374.00;;;;10426137;27;20335;-81
2023/09/02 08:18:11;;;;;;;8.32;3.88;;;;;22.60;101385.00;;;;10430152;27;20239;-80
2023/09/02 08:23:13;;;;;;;5.95;4.03;;;;;22.40;101389.00;;;;10398873;27;20377;-80
2023/09/02 08:28:14;;;;;;;7.32;4.00;;;;;22.60;101390.00;;;;10429806;27;20688;-81
2023/09/02 08:33:15;;;;;;;7.97;3.95;;;;;23.20;101390.00;;;;10428617;27;20781;-81
2023/09/02 08:38:17;;;;;;;6.60;3.85;;;;;23.50;101401.00;;;;10413798;27;20215;-81
2023/09/02 08:43:20;;;;;;;5.57;3.83;;;;;23.70;101398.00;;;;10420244;27;22255;-81
2023/09/02 08:48:25;;;;;;;7.07;3.92;;;;;23.90;101405.00;;;;10450763;27;20201;-81
2023/09/02 08:53:29;;;;;;;8.75;3.88;;;;;23.80;101409.00;;;;10450695;27;21720;-81
2023/09/02 08:58:31;;;;;;;6.43;3.90;;;;;24.00;101405.00;;;;10450589;27;20211;-81
2023/09/02 09:03:33;;;;;;;6.78;4.18;;;;;24.30;101416.00;;;;10432998;27;20296;-82
2023/09/02 09:08:35;;;;;;;8.05;5.10;;;;;25.30;101411.00;;;;10416611;27;20329;-82
2023/09/02 09:13:44;;;;;;;7.03;4.72;;;;;26.10;101418.00;;;;10432809;27;20958;-82
2023/09/02 09:18:45;;;;;;;9.40;4.05;;;;;27.00;101413.00;;;;10431121;27;20736;-82
2023/09/02 09:23:47;;;;;;;6.35;3.70;;;;;27.30;101414.00;;;;10433830;27;20219;-82
2023/09/02 09:28:53;;;;;;;4.65;3.13;;;;;27.70;101414.00;;;;10415466;28;20965;-83
2023/09/02 09:34:00;;;;;;;7.40;3.47;;;;;28.20;101420.00;;;;10435346;27;20208;-82
2023/09/02 09:39:07;;;;;;;7.97;3.33;;;;;28.50;101427.00;;;;10402775;27;20258;-83
2023/09/02 09:44:17;;;;;;;6.28;3.28;;;;;28.30;101429.00;;;;10432558;27;20208;-83
2023/09/02 09:49:26;;;;;;;10.82;3.97;;;;;27.90;101438.00;;;;10413157;27;20315;-83
2023/09/02 09:54:41;;;;;;;3.72;3.00;;;;;28.10;101433.00;;;;10416240;27;20218;-83
2023/09/02 09:59:52;;;;;;;7.07;3.65;;;;;27.90;101447.00;;;;10433117;27;20226;-83
2023/09/02 10:04:59;;;;;;;3.38;2.72;;;;;27.20;101450.00;;;;10448707;27;20591;-83
2023/09/02 10:10:04;;;;;;;3.38;2.30;;;;;26.90;101460.00;;;;10433963;27;20679;-83
2023/09/02 10:15:07;;;;;;;5.15;2.67;;;;;26.20;101460.00;;;;10432624;27;20594;-82
2023/09/02 10:20:09;;;;;;;4.72;2.45;;;;;25.60;101472.00;;;;10416029;27;21310;-82
2023/09/02 10:25:19;;;;;;;3.40;2.17;;;;;26.00;101463.00;;;;10414389;28;20228;-83
2023/09/02 10:30:43;;;;;;;5.32;2.80;;;;;27.50;101459.00;;;;10412162;27;20556;-82
2023/09/02 10:35:50;;;;;;;3.80;2.22;;;;;28.30;101459.00;;;;10426848;27;20209;-82
2023/09/02 10:41:00;;;;;;;3.58;2.22;;;;;28.70;101463.00;;;;10416045;27;20211;-83
2023/09/02 10:46:03;;;;;;;5.03;1.95;;;;;28.10;101458.00;;;;10410687;27;20914;-83
2023/09/02 10:51:05;;;;;;;3.85;1.88;;;;;29.10;101469.00;;;;10430585;27;21546;-83
2023/09/02 10:56:06;;;;;;;2.97;1.80;;;;;27.40;101470.00;;;;10414060;27;20694;-82
2023/09/02 11:01:08;;;;;;;3.15;1.92;;;;;27.40;101474.00;;;;10426756;27;20220;-82
2023/09/02 11:06:12;;;;;;;1.65;1.38;;;;;28.80;101476.00;;;;10413202;27;20201;-83
2023/09/02 11:11:14;;;;;;;5.47;1.70;;;;;30.30;101469.00;;;;10430046;27;20223;-82
2023/09/02 11:16:15;;;;;;;1.80;1.50;;;;;30.50;101474.00;;;;10426140;27;20208;-83
2023/09/02 11:21:57;;;;;;;7.13;1.65;;;;;30.30;101485.00;;;;10427119;27;20270;-83
2023/09/02 11:26:59;;;;;;;1.75;1.50;;;;;29.00;101494.00;;;;10228234;28;20210;-82
2023/09/02 11:32:03;;;;;;;3.53;1.70;;;;;28.80;101496.00;;;;10407875;27;20243;-82
2023/09/02 11:37:05;;;;;;;5.07;1.30;;;;;30.20;101500.00;;;;10447308;27;20216;-82
2023/09/02 11:42:11;;;;;;;4.03;1.40;;;;;31.10;101498.00;;;;10426745;27;20823;-83
2023/09/02 11:47:14;;;;;;;1.83;1.48;;;;;32.60;101503.00;;;;10425271;27;20871;-84
2023/09/02 11:52:20;;;;;;;3.78;1.00;;;;;31.40;101520.00;;;;10414080;27;20237;-83
2023/09/02 11:57:21;;;;;;;2.58;1.30;;;;;29.50;101516.00;;;;10446037;27;22082;-82
2023/09/02 12:02:25;;;;;;;4.15;1.40;;;;;28.60;101521.00;;;;10426665;27;20224;-82
2023/09/02 12:07:26;;;;;;;2.20;1.38;;;;;28.20;101523.00;;;;10430892;27;20636;-82
2023/09/02 12:12:28;;;;;;;1.77;1.20;;;;;27.20;101529.00;;;;10445935;27;20246;-82
2023/09/02 12:17:29;;;;;;;2.85;1.20;;;;;26.70;101528.00;;;;10446342;27;20304;-82
2023/09/02 12:22:31;;;;;;;4.15;1.17;;;;;26.20;101540.00;;;;10428304;27;20224;-82
2023/09/02 12:27:32;;;;;;;0.80;0.80;;;;;25.70;101539.00;;;;10429887;28;20219;-83
2023/09/02 12:32:39;;;;;;;2.67;0.93;;;;;25.60;101540.00;;;;10445856;27;20219;-82
2023/09/02 12:37:40;;;;;;;2.20;1.20;;;;;25.80;101546.00;;;;10411722;27;20238;-82
2023/09/02 12:42:53;;;;;;;2.83;1.20;;;;;26.10;101547.00;;;;10416599;28;20663;-81
2023/09/02 12:47:58;;;;;;;1.35;1.00;;;;;26.40;101546.00;;;;10426168;27;20195;-82
2023/09/02 12:53:03;;;;;;;3.08;1.83;;;;;28.40;101542.00;;;;10413451;27;20212;-82
2023/09/02 12:58:05;;;;;;;3.28;1.70;;;;;29.10;101540.00;;;;10407981;27;20196;-82
2023/09/02 13:03:06;;;;;;;1.83;1.45;;;;;29.20;101549.00;;;;10444426;27;20263;-82
2023/09/02 13:08:07;;;;;;;2.67;1.00;;;;;28.70;101546.00;;;;10428618;27;20267;-82
2023/09/02 13:13:09;;;;;;;2.60;1.02;;;;;29.10;101541.00;;;;10447711;27;20796;-82
2023/09/02 13:18:10;;;;;;;1.13;0.90;;;;;29.50;101527.00;;;;10424340;27;20214;-82
2023/09/02 13:23:12;;;;;;;1.80;1.38;;;;;29.90;101528.00;;;;10422788;27;20212;-82
2023/09/02 13:28:13;;;;;;;2.42;1.10;;;;;30.40;101528.00;;;;10419954;27;20238;-81
2023/09/02 13:33:14;;;;;;;2.08;1.30;;;;;29.40;101543.00;;;;10447839;27;20569;-80
2023/09/02 13:38:23;;;;;;;2.00;1.20;;;;;27.80;101553.00;;;;10448682;27;20211;-81
2023/09/02 13:43:25;;;;;;;3.42;1.35;;;;;27.10;101560.00;;;;10430155;27;21752;-80
2023/09/02 13:48:28;;;;;;;1.13;1.02;;;;;28.30;101557.00;;;;10412865;27;20196;-81
2023/09/02 13:53:32;;;;;;;1.23;1.13;;;;;29.30;101553.00;;;;10473277;27;20322;-81
2023/09/02 13:58:35;;;;;;;2.63;1.30;;;;;29.70;101565.00;;;;10454456;27;20262;-80
2023/09/02 14:03:37;;;;;;;1.98;1.67;;;;;30.70;101568.00;;;;10452495;27;20232;-83
2023/09/02 14:08:41;;;;;;;2.28;1.58;;;;;30.00;101564.00;;;;10453207;27;20199;-82
2023/09/02 14:13:43;;;;;;;3.70;1.73;;;;;28.90;101578.00;;;;10452744;27;20301;-80
2023/09/02 14:18:46;;;;;;;1.80;1.65;;;;;28.50;101561.00;;;;10448287;27;20214;-81
2023/09/02 14:23:53;;;;;;;2.65;1.67;;;;;27.90;101559.00;;;;10467389;27;20674;-81
2023/09/02 14:28:56;;;;;;;4.35;1.83;;;;;28.50;101549.00;;;;10410125;27;20272;-84
2023/09/02 14:33:58;;;;;;;17.23;2.95;;;;;28.50;101567.00;;;;10449157;28;20221;-81
2023/09/02 14:38:59;;;;;;;1.88;1.70;;;;;28.60;101560.00;;;;10467610;27;20212;-83
2023/09/02 14:44:00;;;;;;;2.53;1.70;;;;;29.00;101574.00;;;;10434331;27;20289;-81
2023/09/02 14:49:01;;;;;;;41.05;5.63;;;;;28.40;101572.00;;;;10457265;27;20215;-82
2023/09/02 14:54:04;;;;;;;3.60;2.10;;;;;27.60;101581.00;;;;10452396;27;20227;-82
2023/09/02 14:59:16;;;;;;;2.50;1.67;;;;;27.50;101583.00;;;;10452367;27;20215;-81
2023/09/02 15:04:20;;;;;;;3.92;1.92;;;;;27.60;101585.00;;;;10420612;27;21806;-83
2023/09/02 15:09:31;;;;;;;3.10;1.60;;;;;26.90;101574.00;;;;10453647;27;20229;-81
2023/09/02 15:14:34;;;;;;;3.10;2.17;;;;;26.70;101580.00;;;;10469155;27;20197;-82
2023/09/02 15:19:36;;;;;;;3.17;1.80;;;;;26.10;101573.00;;;;10433203;27;20946;-82
2023/09/02 15:24:37;;;;;;;7.60;2.58;;;;;25.90;101583.00;;;;10432995;27;20205;-82
2023/09/02 15:29:39;;;;;;;8.02;2.60;;;;;25.80;101587.00;;;;10454161;27;20331;-81
2023/09/02 15:34:48;;;;;;;5.68;2.55;;;;;25.70;101582.00;;;;10433940;27;21603;-81
2023/09/02 15:39:52;;;;;;;2.72;2.40;;;;;25.50;101591.00;;;;10450768;27;20220;-81
2023/09/02 15:44:54;;;;;;;9.90;2.40;;;;;25.50;101587.00;;;;10469294;27;20231;-81
2023/09/02 15:49:55;;;;;;;10.20;3.85;;;;;25.30;101589.00;;;;10448425;27;20203;-81
2023/09/02 15:54:56;;;;;;;12.05;4.60;;;;;25.20;101593.00;;;;10447596;27;20335;-82
2023/09/02 15:59:58;;;;;;;5.03;4.03;;;;;25.30;101597.00;;;;10428317;27;20212;-80
2023/09/02 16:04:59;;;;;;;6.30;4.63;;;;;25.50;101586.00;;;;10448695;27;20201;-81
2023/09/02 16:10:01;;;;;;;5.05;4.60;;;;;25.50;101589.00;;;;10447203;27;20211;-81
2023/09/02 16:15:03;;;;;;;5.80;5.30;;;;;25.60;101586.00;;;;10446469;27;20204;-80
2023/09/02 16:20:07;;;;;;;6.40;5.90;;;;;25.40;101587.00;;;;10462081;27;20228;-81
2023/09/02 16:25:11;;;;;;;8.57;6.80;;;;;25.10;101591.00;;;;10444169;27;20236;-80
2023/09/02 16:30:13;;;;;;;7.88;7.07;;;;;24.80;101606.00;;;;10443593;27;21302;-80
2023/09/02 16:35:18;;;;;;;8.15;7.35;;;;;24.60;101609.00;;;;10442905;27;20393;-80
2023/09/02 16:40:20;;;;;;;7.57;6.90;;;;;24.40;101603.00;;;;10443165;27;20232;-81
2023/09/02 16:45:26;;;;;;;9.07;8.27;;;;;24.20;101616.00;;;;10441076;27;21895;-81
2023/09/02 16:50:28;;;;;;;8.95;8.18;;;;;24.00;101607.00;;;;10455489;27;20312;-80
2023/09/02 16:55:29;;;;;;;10.32;9.07;;;;;23.90;101619.00;;;;10420814;27;21214;-80
2023/09/02 17:00:35;;;;;;;10.70;9.65;;;;;23.80;101627.00;;;;10439544;27;20227;-80
2023/09/02 17:05:41;;;;;;;15.60;14.20;;;;;23.50;101628.00;;;;10460580;27;20682;-81
2023/09/02 17:10:43;;;;;;;16.00;14.40;;;;;23.30;101621.00;;;;10453293;28;21491;-81
2023/09/02 17:15:44;;;;;;;16.05;14.65;;;;;23.10;101632.00;;;;10441581;27;20820;-80
2023/09/02 17:20:46;;;;;;;16.80;15.40;;;;;22.80;101634.00;;;;10452689;27;21767;-84
2023/09/02 17:25:48;;;;;;;17.02;15.50;;;;;22.70;101634.00;;;;10404072;27;20563;-80
2023/09/02 17:31:04;;;;;;;18.17;16.50;;;;;22.60;101651.00;;;;10447048;27;20217;-79
2023/09/02 17:36:07;;;;;;;17.48;15.77;;;;;22.40;101657.00;;;;10413897;27;20207;-80
2023/09/02 17:41:08;;;;;;;18.30;15.95;;;;;22.20;101668.00;;;;10450076;27;20231;-80
2023/09/02 17:46:10;;;;;;;16.42;14.93;;;;;22.10;101669.00;;;;10413353;27;20227;-80
2023/09/02 17:51:11;;;;;;;18.23;16.40;;;;;21.90;101669.00;;;;10430909;27;20205;-80
2023/09/02 17:56:13;;;;;;;18.75;16.67;;;;;21.80;101678.00;;;;10414984;27;21953;-80
2023/09/02 18:01:14;;;;;;;18.75;17.15;;;;;21.60;101696.00;;;;10412019;28;20221;-80
2023/09/02 18:06:15;;;;;;;19.90;18.02;;;;;21.50;101693.00;;;;10429175;27;20205;-80
2023/09/02 18:11:17;;;;;;;20.65;18.70;;;;;21.30;101705.00;;;;10420612;27;20212;-80
2023/09/02 18:16:18;;;;;;;22.02;19.73;;;;;21.10;101717.00;;;;10451870;27;21839;-80
2023/09/02 18:21:20;;;;;;;20.90;18.98;;;;;20.90;101724.00;;;;10452719;27;21489;-79
2023/09/02 18:26:21;;;;;;;23.55;21.17;;;;;20.80;101742.00;;;;10467224;27;20208;-80
2023/09/02 18:31:23;;;;;;;22.13;20.00;;;;;20.60;101748.00;;;;10434581;27;20219;-80
2023/09/02 18:36:24;;;;;;;23.55;21.15;;;;;20.50;101746.00;;;;10434878;27;20208;-79
2023/09/02 18:41:25;;;;;;;26.63;23.95;;;;;20.40;101755.00;;;;10458835;27;20330;-80
2023/09/02 18:46:27;;;;;;;26.58;23.88;;;;;20.30;101765.00;;;;10424494;27;21017;-79
2023/09/02 18:51:28;;;;;;;31.17;24.30;;;;;20.10;101761.00;;;;10432586;27;20300;-80
2023/09/02 18:56:30;;;;;;;26.77;23.98;;;;;20.00;101774.00;;;;10432982;27;21791;-80
2023/09/02 19:01:32;;;;;;;27.05;24.10;;;;;19.90;101786.00;;;;10426285;27;21391;-80
2023/09/02 19:06:34;;;;;;;28.83;24.80;;;;;19.80;101791.00;;;;10429735;27;21516;-79
2023/09/02 19:11:39;;;;;;;27.95;25.20;;;;;19.70;101799.00;;;;10446632;27;20573;-79
2023/09/02 19:16:40;;;;;;;31.08;27.77;;;;;19.60;101804.00;;;;10460896;27;21944;-80
2023/09/02 19:21:42;;;;;;;30.55;27.27;;;;;19.60;101801.00;;;;10428490;27;20221;-80
2023/09/02 19:26:43;;;;;;;31.05;27.75;;;;;19.50;101809.00;;;;10413635;27;22480;-80
2023/09/02 19:31:44;;;;;;;31.45;27.13;;;;;19.40;101820.00;;;;10444706;27;20333;-80
2023/09/02 19:36:46;;;;;;;31.13;26.63;;;;;19.30;101804.00;;;;10464143;27;20227;-80
2023/09/02 19:41:48;;;;;;;31.30;26.92;;;;;19.20;101827.00;;;;10449259;28;20223;-80
2023/09/02 19:46:49;;;;;;;31.15;27.85;;;;;19.10;101828.00;;;;10414099;28;20208;-80
2023/09/02 19:51:50;;;;;;;31.00;26.98;;;;;19.00;101835.00;;;;10442927;27;20208;-80
2023/09/02 19:56:52;;;;;;;33.45;27.10;;;;;19.00;101844.00;;;;10406840;27;20926;-80
2023/09/02 20:01:53;;;;;;;30.90;26.80;;;;;18.90;101844.00;;;;10430509;27;20701;-79
2023/09/02 20:06:56;;;;;;;32.55;28.00;;;;;18.80;101863.00;;;;10428873;27;21612;-80
2023/09/02 20:11:57;;;;;;;34.35;28.55;;;;;18.70;101852.00;;;;10463128;27;20204;-80
2023/09/02 20:16:59;;;;;;;33.83;27.45;;;;;18.70;101846.00;;;;10447287;27;20261;-80
2023/09/02 20:22:00;;;;;;;34.17;28.63;;;;;18.50;101857.00;;;;10434630;27;20232;-80
2023/09/02 20:27:03;;;;;;;32.05;28.40;;;;;18.40;101856.00;;;;10443097;27;20334;-80
2023/09/02 20:32:05;;;;;;;40.15;32.65;;;;;18.30;101861.00;;;;10461367;27;20209;-80
2023/09/02 20:37:07;;;;;;;36.78;29.73;;;;;18.20;101894.00;;;;10415714;28;20206;-79
2023/09/02 20:42:08;;;;;;;36.92;30.92;;;;;18.20;101884.00;;;;10421828;27;20228;-80
2023/09/02 20:47:09;;;;;;;32.40;28.85;;;;;18.10;101897.00;;;;10424218;27;20204;-80
2023/09/02 20:52:10;;;;;;;40.92;31.88;;;;;18.10;101881.00;;;;10443831;27;20220;-80
2023/09/02 20:57:12;;;;;;;37.50;28.98;;;;;18.00;101883.00;;;;10428187;27;20323;-80
2023/09/02 21:02:13;;;;;;;40.55;31.70;;;;;17.90;101898.00;;;;10442451;27;20227;-79
2023/09/02 21:07:15;;;;;;;34.25;29.42;;;;;17.90;101896.00;;;;10446906;27;20362;-80
2023/09/02 21:12:16;;;;;;;38.60;29.63;;;;;17.80;101884.00;;;;10445093;27;20294;-80
2023/09/02 21:17:17;;;;;;;38.45;29.85;;;;;17.70;101892.00;;;;10462542;27;22053;-80
2023/09/02 21:22:19;;;;;;;36.58;29.23;;;;;17.70;101910.00;;;;10427050;27;20356;-80
2023/09/02 21:27:20;;;;;;;39.25;31.48;;;;;17.60;101912.00;;;;10444042;27;20196;-79
2023/09/02 21:32:21;;;;;;;41.10;32.42;;;;;17.60;101908.00;;;;10425480;27;20208;-80
2023/09/02 21:37:23;;;;;;;36.25;30.90;;;;;17.60;101914.00;;;;10423474;28;20204;-80
2023/09/02 21:42:24;;;;;;;39.80;32.08;;;;;17.60;101900.00;;;;10424534;27;20227;-80
2023/09/02 21:47:26;;;;;;;38.72;31.90;;;;;17.50;101911.00;;;;10428679;28;20887;-79
2023/09/02 21:52:27;;;;;;;37.00;31.10;;;;;17.50;101919.00;;;;10415012;27;21206;-79
2023/09/02 21:57:28;;;;;;;40.25;31.98;;;;;17.40;101924.00;;;;10466688;27;20208;-79
2023/09/02 22:02:30;;;;;;;47.50;34.92;;;;;17.40;101915.00;;;;10432147;27;20208;-79
2023/09/02 22:07:31;;;;;;;44.95;34.40;;;;;17.40;101919.00;;;;10452868;28;20215;-79
2023/09/02 22:12:32;;;;;;;43.85;32.75;;;;;17.30;101921.00;;;;10431751;27;20296;-80
2023/09/02 22:17:34;;;;;;;45.03;33.63;;;;;17.20;101924.00;;;;10445746;27;20220;-79
2023/09/02 22:22:35;;;;;;;46.83;34.35;;;;;17.20;101930.00;;;;10449333;27;20968;-80
2023/09/02 22:27:38;;;;;;;46.63;34.03;;;;;17.10;101929.00;;;;10449102;27;20857;-79
2023/09/02 22:32:39;;;;;;;40.33;31.73;;;;;17.00;101926.00;;;;10448752;27;20345;-80
2023/09/02 22:37:40;;;;;;;43.55;34.95;;;;;17.00;101919.00;;;;10448774;27;20292;-80
2023/09/02 22:42:41;;;;;;;42.65;31.85;;;;;16.90;101929.00;;;;10466966;27;20321;-79
2023/09/02 22:47:43;;;;;;;45.47;33.22;;;;;16.90;101928.00;;;;10432523;27;20211;-79
2023/09/02 22:52:44;;;;;;;43.55;33.88;;;;;16.80;101934.00;;;;10448530;27;20228;-79
2023/09/02 22:57:45;;;;;;;49.25;33.90;;;;;16.70;101931.00;;;;10466860;27;20219;-79
2023/09/02 23:02:47;;;;;;;49.13;33.35;;;;;16.70;101937.00;;;;10448935;27;20321;-79
2023/09/02 23:07:49;;;;;;;47.78;34.30;;;;;16.60;101943.00;;;;10448933;27;20227;-79
2023/09/02 23:12:50;;;;;;;45.40;33.33;;;;;16.50;101941.00;;;;10447094;28;20319;-80
2023/09/02 23:17:52;;;;;;;46.88;35.83;;;;;16.50;101938.00;;;;10455022;27;20197;-80
2023/09/02 23:22:53;;;;;;;51.83;34.53;;;;;16.40;101935.00;;;;10440967;27;21141;-79
2023/09/02 23:27:54;;;;;;;50.17;34.83;;;;;16.40;101945.00;;;;10454116;27;21740;-79
2023/09/02 23:32:56;;;;;;;50.33;36.30;;;;;16.40;101942.00;;;;10456195;28;20228;-80
2023/09/02 23:37:57;;;;;;;52.13;35.03;;;;;16.30;101930.00;;;;10443264;27;20203;-80
2023/09/02 23:42:58;;;;;;;50.72;35.22;;;;;16.30;101935.00;;;;10466570;27;20208;-80
2023/09/02 23:48:00;;;;;;;46.05;33.72;;;;;16.20;101941.00;;;;10462909;27;20212;-80
2023/09/02 23:53:01;;;;;;;44.97;33.22;;;;;16.20;101952.00;;;;10457224;27;20881;-80
2023/09/02 23:58:03;;;;;;;51.72;35.80;;;;;16.20;101954.00;;;;10425160;27;20239;-80
